Date,TemperatureHighF,TemperatureAvgF,TemperatureLowF,DewpointHighF,DewpointAvgF,DewpointLowF,HumidityHigh,HumidityAvg,HumidityLow,PressureMaxIn,PressureMinIn,WindSpeedMaxMPH,WindSpeedAvgMPH,GustSpeedMaxMPH,PrecipitationSumIn
2013-6-1,89,77,65,75,69,64,97,78,60,30.01,29.87,5,1,11,0.00
2013-6-2,79,72,66,73,68,64,97,89,78,29.87,29.81,4,1,9,0.04
2013-6-3,81,70,60,74,66,56,100,88,68,29.95,29.82,3,0,10,0.46
2013-6-4,60,53,49,56,51,46,96,91,86,30.04,29.95,1,0,1,0.00
2013-6-5,76,75,75,63,62,62,64,64,64,30.06,30.04,2,2,0,0.00
2013-6-6,64,64,64,64,63,63,98,97,97,29.89,29.87,5,4,0,0.06
2013-6-7,68,67,66,68,67,66,99,98,98,29.75,28.93,6,1,6,0.39
2013-6-8,79,70,60,70,64,59,96,81,65,30.09,29.61,13,1,13,0.00
2013-6-9,80,69,59,71,65,58,99,87,68,30.19,29.56,11,1,11,0.06
2013-6-10,78,70,66,75,69,66,100,97,88,30.08,29.76,20,2,20,0.62
2013-6-11,80,70,62,73,67,62,100,90,73,29.84,28.60,18,1,18,0.00
2013-6-12,77,69,63,73,67,62,98,93,85,29.84,29.65,4,0,4,0.00
2013-6-13,80,71,65,73,68,64,100,92,75,29.78,28.92,29,1,29,0.52
2013-6-14,80,68,60,66,60,57,92,76,54,29.98,29.58,4,1,0,0.00
2013-6-15,60,58,57,58,57,56,96,94,92,29.99,29.97,0,0,0,0.00
2013-6-16,78,72,66,71,68,64,94,85,77,29.92,29.87,9,0,9,0.00
2013-6-17,85,74,63,76,69,62,97,84,67,29.94,29.00,10,0,10,0.00
2013-6-18,74,70,66,73,68,65,99,96,91,29.89,29.03,6,0,6,0.18
2013-6-19,77,67,60,68,62,60,99,86,64,30.14,29.73,3,1,0,0.17
2013-6-20,79,69,60,68,63,59,100,85,64,30.25,30.14,5,1,0,0.00
2013-6-21,82,71,57,68,60,53,92,70,56,30.28,30.20,12,1,12,0.00
2013-6-22,86,74,62,75,67,59,99,82,64,30.23,30.10,10,1,10,0.00
2013-6-23,86,75,67,76,71,66,98,87,66,30.17,30.04,10,1,10,0.00
2013-6-24,71,70,70,70,70,69,97,97,96,30.10,30.08,0,0,0,0.00
2013-6-25,91,78,66,80,72,65,100,85,64,30.01,28.22,4,1,0,0.11
2013-6-26,87,72,64,78,70,63,100,93,74,29.91,29.01,8,0,0,0.26
2013-6-27,84,73,66,78,71,66,100,92,78,29.81,28.33,5,1,16,0.10
2013-6-28,86,74,65,76,70,65,99,85,66,29.59,29.37,5,1,16,0.00
2013-6-29,86,74,63,73,67,62,98,81,55,29.68,29.50,4,1,16,0.09
2013-6-30,85,74,65,78,71,65,100,92,73,29.83,29.67,7,1,16,0.03